sensor_id;sensor_type;location;lat;lon;timestamp;pressure;altitude;pressure_sealevel;temperature;humidity
51496;BME280;37572;52.094;4.870;2023-04-03T00:02:07;103087.19;;;19.22;43.04
51496;BME280;37572;52.094;4.870;2023-04-03T00:04:32;103081.25;;;19.18;43.05
51496;BME280;37572;52.094;4.870;2023-04-03T00:06:57;103085.97;;;19.16;43.38
51496;BME280;37572;52.094;4.870;2023-04-03T00:09:23;103091.53;;;19.15;43.59
51496;BME280;37572;52.094;4.870;2023-04-03T00:11:48;103091.00;;;19.11;43.47
51496;BME280;37572;52.094;4.870;2023-04-03T00:14:13;103092.03;;;19.10;43.62
51496;BME280;37572;52.094;4.870;2023-04-03T00:16:39;103089.63;;;19.07;43.80
51496;BME280;37572;52.094;4.870;2023-04-03T00:19:04;103093.63;;;19.03;43.75
51496;BME280;37572;52.094;4.870;2023-04-03T00:21:30;103091.09;;;19.01;43.76
51496;BME280;37572;52.094;4.870;2023-04-03T00:23:55;103090.56;;;18.98;43.95
51496;BME280;37572;52.094;4.870;2023-04-03T00:26:20;103089.03;;;18.95;43.65
51496;BME280;37572;52.094;4.870;2023-04-03T00:28:46;103092.56;;;18.96;43.50
51496;BME280;37572;52.094;4.870;2023-04-03T00:31:14;103091.19;;;18.92;43.86
51496;BME280;37572;52.094;4.870;2023-04-03T00:33:40;103084.78;;;18.93;43.73
51496;BME280;37572;52.094;4.870;2023-04-03T00:36:09;103085.97;;;18.90;43.85
51496;BME280;37572;52.094;4.870;2023-04-03T00:38:35;103081.88;;;18.86;43.84
51496;BME280;37572;52.094;4.870;2023-04-03T00:41:01;103089.28;;;18.84;44.01
51496;BME280;37572;52.094;4.870;2023-04-03T00:43:26;103092.81;;;18.84;43.85
51496;BME280;37572;52.094;4.870;2023-04-03T00:45:55;103091.25;;;18.82;43.99
51496;BME280;37572;52.094;4.870;2023-04-03T00:48:44;103095.78;;;18.81;43.85
51496;BME280;37572;52.094;4.870;2023-04-03T00:51:12;103095.66;;;18.83;43.76
51496;BME280;37572;52.094;4.870;2023-04-03T00:53:43;103110.47;;;18.79;43.90
51496;BME280;37572;52.094;4.870;2023-04-03T00:56:12;103111.31;;;18.79;43.65
51496;BME280;37572;52.094;4.870;2023-04-03T00:58:46;103107.59;;;18.80;44.00
51496;BME280;37572;52.094;4.870;2023-04-03T01:01:16;103109.59;;;18.78;43.59
51496;BME280;37572;52.094;4.870;2023-04-03T01:03:43;103117.00;;;18.76;43.95
51496;BME280;37572;52.094;4.870;2023-04-03T01:06:09;103118.88;;;18.76;44.21
51496;BME280;37572;52.094;4.870;2023-04-03T01:08:35;103118.72;;;18.77;43.74
51496;BME280;37572;52.094;4.870;2023-04-03T01:11:00;103119.53;;;18.78;44.07
51496;BME280;37572;52.094;4.870;2023-04-03T01:13:31;103113.47;;;18.76;43.95
51496;BME280;37572;52.094;4.870;2023-04-03T01:15:57;103118.88;;;18.76;43.63
51496;BME280;37572;52.094;4.870;2023-04-03T01:18:26;103115.00;;;18.78;43.96
51496;BME280;37572;52.094;4.870;2023-04-03T01:21:14;103107.91;;;18.77;43.86
51496;BME280;37572;52.094;4.870;2023-04-03T01:24:10;103113.78;;;18.73;43.66
51496;BME280;37572;52.094;4.870;2023-04-03T01:26:36;103108.53;;;18.71;43.78
51496;BME280;37572;52.094;4.870;2023-04-03T01:29:02;103110.53;;;18.69;44.14
51496;BME280;37572;52.094;4.870;2023-04-03T01:34:00;103113.53;;;18.66;44.36
51496;BME280;37572;52.094;4.870;2023-04-03T01:36:29;103111.16;;;18.63;44.34
51496;BME280;37572;52.094;4.870;2023-04-03T01:38:55;103107.59;;;18.62;44.21
51496;BME280;37572;52.094;4.870;2023-04-03T01:41:21;103102.38;;;18.61;43.90
51496;BME280;37572;52.094;4.870;2023-04-03T01:43:48;103109.63;;;18.60;43.89
51496;BME280;37572;52.094;4.870;2023-04-03T01:46:15;103109.78;;;18.59;43.95
51496;BME280;37572;52.094;4.870;2023-04-03T01:48:40;103106.34;;;18.57;44.20
51496;BME280;37572;52.094;4.870;2023-04-03T01:51:05;103111.75;;;18.57;44.48
51496;BME280;37572;52.094;4.870;2023-04-03T01:53:31;103120.03;;;18.55;44.11
51496;BME280;37572;52.094;4.870;2023-04-03T01:55:56;103113.06;;;18.53;44.38
51496;BME280;37572;52.094;4.870;2023-04-03T01:58:21;103114.06;;;18.52;44.00
51496;BME280;37572;52.094;4.870;2023-04-03T02:00:47;103117.09;;;18.48;44.31
51496;BME280;37572;52.094;4.870;2023-04-03T02:03:12;103114.41;;;18.48;44.43
51496;BME280;37572;52.094;4.870;2023-04-03T02:05:38;103120.78;;;18.47;44.08
51496;BME280;37572;52.094;4.870;2023-04-03T02:08:03;103115.53;;;18.46;44.10
51496;BME280;37572;52.094;4.870;2023-04-03T02:10:29;103122.78;;;18.45;44.35
51496;BME280;37572;52.094;4.870;2023-04-03T02:12:54;103120.25;;;18.44;44.31
51496;BME280;37572;52.094;4.870;2023-04-03T02:15:19;103120.41;;;18.42;44.25
51496;BME280;37572;52.094;4.870;2023-04-03T02:17:45;103119.72;;;18.40;44.24
51496;BME280;37572;52.094;4.870;2023-04-03T02:20:10;103123.38;;;18.39;44.37
51496;BME280;37572;52.094;4.870;2023-04-03T02:22:35;103120.69;;;18.39;44.38
51496;BME280;37572;52.094;4.870;2023-04-03T02:25:01;103130.66;;;18.39;44.48
51496;BME280;37572;52.094;4.870;2023-04-03T02:27:26;103132.63;;;18.37;44.56
51496;BME280;37572;52.094;4.870;2023-04-03T02:29:52;103126.38;;;18.36;44.57
51496;BME280;37572;52.094;4.870;2023-04-03T02:32:17;103127.56;;;18.34;44.66
51496;BME280;37572;52.094;4.870;2023-04-03T02:34:42;103135.78;;;18.32;44.34
51496;BME280;37572;52.094;4.870;2023-04-03T02:37:08;103126.97;;;18.30;44.61
51496;BME280;37572;52.094;4.870;2023-04-03T02:39:33;103127.84;;;18.30;44.18
51496;BME280;37572;52.094;4.870;2023-04-03T02:41:58;103126.28;;;18.28;44.29
51496;BME280;37572;52.094;4.870;2023-04-03T02:44:24;103129.00;;;18.28;44.37
51496;BME280;37572;52.094;4.870;2023-04-03T02:46:49;103133.69;;;18.26;44.25
51496;BME280;37572;52.094;4.870;2023-04-03T02:49:15;103136.69;;;18.23;44.41
51496;BME280;37572;52.094;4.870;2023-04-03T02:51:40;103134.00;;;18.23;44.60
51496;BME280;37572;52.094;4.870;2023-04-03T02:54:06;103138.69;;;18.21;44.66
51496;BME280;37572;52.094;4.870;2023-04-03T02:56:31;103138.69;;;18.21;44.36
51496;BME280;37572;52.094;4.870;2023-04-03T02:58:56;103145.06;;;18.20;44.42
51496;BME280;37572;52.094;4.870;2023-04-03T03:01:22;103145.22;;;18.18;44.60
51496;BME280;37572;52.094;4.870;2023-04-03T03:03:47;103148.06;;;18.17;44.37
51496;BME280;37572;52.094;4.870;2023-04-03T03:06:15;103152.78;;;18.15;44.72
51496;BME280;37572;52.094;4.870;2023-04-03T03:08:41;103147.38;;;18.15;44.52
51496;BME280;37572;52.094;4.870;2023-04-03T03:11:07;103154.78;;;18.12;44.72
51496;BME280;37572;52.094;4.870;2023-04-03T03:13:33;103155.75;;;18.11;44.57
51496;BME280;37572;52.094;4.870;2023-04-03T03:15:58;103163.84;;;18.11;44.48
51496;BME280;37572;52.094;4.870;2023-04-03T03:18:24;103160.59;;;18.08;44.46
51496;BME280;37572;52.094;4.870;2023-04-03T03:20:57;103160.59;;;18.08;44.36
51496;BME280;37572;52.094;4.870;2023-04-03T03:23:24;103162.59;;;18.06;44.78
51496;BME280;37572;52.094;4.870;2023-04-03T03:25:57;103164.63;;;18.04;44.70
51496;BME280;37572;52.094;4.870;2023-04-03T03:28:23;103163.75;;;18.03;44.69
51496;BME280;37572;52.094;4.870;2023-04-03T03:30:49;103161.03;;;18.03;44.70
51496;BME280;37572;52.094;4.870;2023-04-03T03:33:14;103163.88;;;18.02;44.74
51496;BME280;37572;52.094;4.870;2023-04-03T03:35:39;103162.34;;;17.99;44.38
51496;BME280;37572;52.094;4.870;2023-04-03T03:38:05;103156.28;;;17.97;44.93
51496;BME280;37572;52.094;4.870;2023-04-03T03:40:30;103159.81;;;17.98;44.65
51496;BME280;37572;52.094;4.870;2023-04-03T03:42:56;103158.09;;;17.97;44.66
51496;BME280;37572;52.094;4.870;2023-04-03T03:45:21;103159.13;;;17.96;44.49
51496;BME280;37572;52.094;4.870;2023-04-03T03:47:46;103160.09;;;17.94;44.64
51496;BME280;37572;52.094;4.870;2023-04-03T03:50:11;103162.94;;;17.93;44.71
51496;BME280;37572;52.094;4.870;2023-04-03T03:52:37;103163.09;;;17.91;44.62
51496;BME280;37572;52.094;4.870;2023-04-03T03:55:02;103170.03;;;17.84;45.00
51496;BME280;37572;52.094;4.870;2023-04-03T03:57:27;103168.63;;;17.80;44.84
51496;BME280;37572;52.094;4.870;2023-04-03T03:59:54;103173.72;;;17.83;44.82
51496;BME280;37572;52.094;4.870;2023-04-03T04:02:20;103179.84;;;17.85;44.84
51496;BME280;37572;52.094;4.870;2023-04-03T04:04:45;103167.78;;;17.89;44.77
51496;BME280;37572;52.094;4.870;2023-04-03T04:07:11;103163.09;;;17.91;44.76
51496;BME280;37572;52.094;4.870;2023-04-03T04:09:36;103166.47;;;17.93;44.83
51496;BME280;37572;52.094;4.870;2023-04-03T04:12:01;103160.78;;;17.97;44.83
51496;BME280;37572;52.094;4.870;2023-04-03T04:14:26;103165.06;;;17.99;44.88
51496;BME280;37572;52.094;4.870;2023-04-03T04:16:52;103176.53;;;18.01;44.26
51496;BME280;37572;52.094;4.870;2023-04-03T04:19:17;103178.94;;;18.04;44.64
51496;BME280;37572;52.094;4.870;2023-04-03T04:21:42;103176.78;;;18.08;44.49
51496;BME280;37572;52.094;4.870;2023-04-03T04:24:08;103174.63;;;18.11;44.35
51496;BME280;37572;52.094;4.870;2023-04-03T04:26:34;103173.66;;;18.12;44.14
51496;BME280;37572;52.094;4.870;2023-04-03T04:29:00;103178.59;;;18.17;44.35
51496;BME280;37572;52.094;4.870;2023-04-03T04:31:25;103174.72;;;18.20;44.22
51496;BME280;37572;52.094;4.870;2023-04-03T04:33:51;103173.47;;;18.24;44.21
51496;BME280;37572;52.094;4.870;2023-04-03T04:36:16;103181.41;;;18.25;44.25
51496;BME280;37572;52.094;4.870;2023-04-03T04:38:41;103172.00;;;18.29;44.06
51496;BME280;37572;52.094;4.870;2023-04-03T04:41:07;103176.25;;;18.32;44.33
51496;BME280;37572;52.094;4.870;2023-04-03T04:43:33;103175.78;;;18.37;43.96
51496;BME280;37572;52.094;4.870;2023-04-03T04:46:09;103173.81;;;18.39;43.63
51496;BME280;37572;52.094;4.870;2023-04-03T04:48:38;103172.63;;;18.41;43.99
51496;BME280;37572;52.094;4.870;2023-04-03T04:51:03;103182.13;;;18.45;43.79
51496;BME280;37572;52.094;4.870;2023-04-03T04:53:29;103177.44;;;18.47;44.23
51496;BME280;37572;52.094;4.870;2023-04-03T04:55:54;103179.84;;;18.51;43.87
51496;BME280;37572;52.094;4.870;2023-04-03T04:58:20;103179.53;;;18.54;43.85
51496;BME280;37572;52.094;4.870;2023-04-03T05:00:46;103186.47;;;18.56;43.93
51496;BME280;37572;52.094;4.870;2023-04-03T05:03:11;103189.84;;;18.58;43.57
51496;BME280;37572;52.094;4.870;2023-04-03T05:05:37;103188.72;;;18.61;43.89
51496;BME280;37572;52.094;4.870;2023-04-03T05:08:03;103193.81;;;18.64;43.65
51496;BME280;37572;52.094;4.870;2023-04-03T05:10:29;103189.09;;;18.66;43.91
51496;BME280;37572;52.094;4.870;2023-04-03T05:12:54;103198.56;;;18.70;43.71
51496;BME280;37572;52.094;4.870;2023-04-03T05:15:20;103196.59;;;18.72;43.83
51496;BME280;37572;52.094;4.870;2023-04-03T05:17:45;103198.25;;;18.73;43.85
51496;BME280;37572;52.094;4.870;2023-04-03T05:20:11;103199.53;;;18.79;43.92
51496;BME280;37572;52.094;4.870;2023-04-03T05:22:36;103211.84;;;18.81;43.85
51496;BME280;37572;52.094;4.870;2023-04-03T05:25:02;103209.03;;;18.83;43.38
51496;BME280;37572;52.094;4.870;2023-04-03T05:27:28;103219.81;;;18.83;43.32
51496;BME280;37572;52.094;4.870;2023-04-03T05:29:54;103216.25;;;18.82;43.72
51496;BME280;37572;52.094;4.870;2023-04-03T05:32:20;103231.63;;;18.82;43.63
51496;BME280;37572;52.094;4.870;2023-04-03T05:34:46;103227.19;;;18.81;43.47
51496;BME280;37572;52.094;4.870;2023-04-03T05:37:11;103230.06;;;18.79;43.28
51496;BME280;37572;52.094;4.870;2023-04-03T05:39:37;103226.66;;;18.77;43.82
51496;BME280;37572;52.094;4.870;2023-04-03T05:42:05;103217.88;;;18.75;43.74
51496;BME280;37572;52.094;4.870;2023-04-03T05:44:30;103220.59;;;18.75;43.92
51496;BME280;37572;52.094;4.870;2023-04-03T05:46:56;103225.97;;;18.75;43.34
51496;BME280;37572;52.094;4.870;2023-04-03T05:49:21;103233.06;;;18.76;43.83
51496;BME280;37572;52.094;4.870;2023-04-03T05:51:46;103229.22;;;18.79;43.47
51496;BME280;37572;52.094;4.870;2023-04-03T05:56:45;103230.75;;;18.81;43.54
51496;BME280;37572;52.094;4.870;2023-04-03T05:59:10;103233.72;;;18.88;43.32
51496;BME280;37572;52.094;4.870;2023-04-03T06:01:36;103237.28;;;18.89;43.48
51496;BME280;37572;52.094;4.870;2023-04-03T06:04:02;103233.56;;;18.90;43.74
51496;BME280;37572;52.094;4.870;2023-04-03T06:06:50;103226.34;;;18.90;43.36
51496;BME280;37572;52.094;4.870;2023-04-03T06:09:20;103230.56;;;18.93;43.25
51496;BME280;37572;52.094;4.870;2023-04-03T06:11:46;103233.94;;;18.95;43.42
51496;BME280;37572;52.094;4.870;2023-04-03T06:14:11;103229.97;;;18.99;43.45
51496;BME280;37572;52.094;4.870;2023-04-03T06:16:37;103232.34;;;19.02;43.70
51496;BME280;37572;52.094;4.870;2023-04-03T06:19:04;103236.44;;;19.06;43.95
51496;BME280;37572;52.094;4.870;2023-04-03T06:21:31;103245.22;;;19.08;43.88
51496;BME280;37572;52.094;4.870;2023-04-03T06:23:56;103241.38;;;19.11;44.11
51496;BME280;37572;52.094;4.870;2023-04-03T06:26:21;103247.31;;;19.14;44.11
51496;BME280;37572;52.094;4.870;2023-04-03T06:28:47;103251.56;;;19.17;44.03
51496;BME280;37572;52.094;4.870;2023-04-03T06:31:12;103254.81;;;19.20;44.15
51496;BME280;37572;52.094;4.870;2023-04-03T06:33:38;103258.03;;;19.24;43.80
51496;BME280;37572;52.094;4.870;2023-04-03T06:36:04;103255.19;;;19.26;43.76
51496;BME280;37572;52.094;4.870;2023-04-03T06:38:30;103250.25;;;19.21;43.59
51496;BME280;37572;52.094;4.870;2023-04-03T06:40:56;103257.66;;;19.19;42.83
51496;BME280;37572;52.094;4.870;2023-04-03T06:43:22;103246.16;;;19.17;42.50
51496;BME280;37572;52.094;4.870;2023-04-03T06:45:47;103251.38;;;19.18;42.35
51496;BME280;37572;52.094;4.870;2023-04-03T06:48:13;103258.50;;;19.19;42.63
51496;BME280;37572;52.094;4.870;2023-04-03T06:50:38;103266.59;;;19.19;42.42
51496;BME280;37572;52.094;4.870;2023-04-03T06:53:04;103263.59;;;19.22;42.32
51496;BME280;37572;52.094;4.870;2023-04-03T06:55:30;103268.69;;;19.26;42.30
51496;BME280;37572;52.094;4.870;2023-04-03T06:57:56;103268.69;;;19.26;42.09
51496;BME280;37572;52.094;4.870;2023-04-03T07:00:22;103266.69;;;19.28;42.00
51496;BME280;37572;52.094;4.870;2023-04-03T07:02:47;103273.78;;;19.29;41.93
51496;BME280;37572;52.094;4.870;2023-04-03T07:05:13;103275.16;;;19.33;41.84
51496;BME280;37572;52.094;4.870;2023-04-03T07:07:38;103278.56;;;19.35;41.60
51496;BME280;37572;52.094;4.870;2023-04-03T07:10:05;103274.56;;;19.39;41.77
51496;BME280;37572;52.094;4.870;2023-04-03T07:12:31;103283.03;;;19.44;41.88
51496;BME280;37572;52.094;4.870;2023-04-03T07:14:56;103280.72;;;19.49;41.72
51496;BME280;37572;52.094;4.870;2023-04-03T07:17:22;103289.19;;;19.54;41.95
51496;BME280;37572;52.094;4.870;2023-04-03T07:19:47;103291.44;;;19.59;41.75
51496;BME280;37572;52.094;4.870;2023-04-03T07:22:12;103285.88;;;19.60;41.82
51496;BME280;37572;52.094;4.870;2023-04-03T07:24:38;103285.41;;;19.65;41.86
51496;BME280;37572;52.094;4.870;2023-04-03T07:27:03;103285.22;;;19.67;41.18
51496;BME280;37572;52.094;4.870;2023-04-03T07:29:28;103294.06;;;19.69;41.07
51496;BME280;37572;52.094;4.870;2023-04-03T07:31:54;103295.88;;;19.68;41.08
51496;BME280;37572;52.094;4.870;2023-04-03T07:34:21;103290.81;;;19.65;41.52
51496;BME280;37572;52.094;4.870;2023-04-03T07:36:46;103295.72;;;19.70;41.10
51496;BME280;37572;52.094;4.870;2023-04-03T07:39:11;103300.00;;;19.72;41.09
51496;BME280;37572;52.094;4.870;2023-04-03T07:41:37;103306.06;;;19.74;41.11
51496;BME280;37572;52.094;4.870;2023-04-03T07:44:03;103306.66;;;19.78;40.97
51496;BME280;37572;52.094;4.870;2023-04-03T07:46:29;103308.56;;;19.86;40.78
51496;BME280;37572;52.094;4.870;2023-04-03T07:48:55;103303.69;;;19.89;40.58
51496;BME280;37572;52.094;4.870;2023-04-03T07:51:20;103299.84;;;19.92;40.70
51496;BME280;37572;52.094;4.870;2023-04-03T07:53:46;103306.44;;;19.98;40.76
51496;BME280;37572;52.094;4.870;2023-04-03T07:56:11;103311.41;;;20.02;40.80
51496;BME280;37572;52.094;4.870;2023-04-03T07:58:36;103302.63;;;20.08;40.68
51496;BME280;37572;52.094;4.870;2023-04-03T08:01:02;103304.84;;;20.13;40.94
51496;BME280;37572;52.094;4.870;2023-04-03T08:03:27;103312.19;;;20.21;40.69
51496;BME280;37572;52.094;4.870;2023-04-03T08:05:53;103319.13;;;20.23;40.77
51496;BME280;37572;52.094;4.870;2023-04-03T08:08:21;103318.63;;;20.28;40.49
51496;BME280;37572;52.094;4.870;2023-04-03T08:10:53;103313.38;;;20.26;40.27
51496;BME280;37572;52.094;4.870;2023-04-03T08:13:20;103317.81;;;20.27;40.18
51496;BME280;37572;52.094;4.870;2023-04-03T08:15:46;103315.63;;;20.31;40.13
51496;BME280;37572;52.094;4.870;2023-04-03T08:18:13;103308.34;;;20.31;40.25
51496;BME280;37572;52.094;4.870;2023-04-03T08:20:39;103322.75;;;20.32;40.09
51496;BME280;37572;52.094;4.870;2023-04-03T08:23:06;103318.31;;;20.31;40.23
51496;BME280;37572;52.094;4.870;2023-04-03T08:25:31;103320.41;;;20.37;40.08
51496;BME280;37572;52.094;4.870;2023-04-03T08:27:57;103324.16;;;20.44;40.00
51496;BME280;37572;52.094;4.870;2023-04-03T08:30:22;103327.38;;;20.48;40.08
51496;BME280;37572;52.094;4.870;2023-04-03T08:32:48;103330.59;;;20.51;39.83
51496;BME280;37572;52.094;4.870;2023-04-03T08:35:13;103329.97;;;20.58;39.63
51496;BME280;37572;52.094;4.870;2023-04-03T08:37:39;103325.38;;;20.58;39.49
51496;BME280;37572;52.094;4.870;2023-04-03T08:40:07;103333.56;;;20.66;39.72
51496;BME280;37572;52.094;4.870;2023-04-03T08:45:10;103335.81;;;20.71;39.28
51496;BME280;37572;52.094;4.870;2023-04-03T08:50:06;103333.97;;;20.80;38.99
51496;BME280;37572;52.094;4.870;2023-04-03T08:52:36;103337.72;;;20.79;39.22
51496;BME280;37572;52.094;4.870;2023-04-03T08:55:13;103338.53;;;20.79;39.02
51496;BME280;37572;52.094;4.870;2023-04-03T08:57:43;103333.28;;;20.78;38.73
51496;BME280;37572;52.094;4.870;2023-04-03T09:02:45;103334.31;;;20.85;38.65
51496;BME280;37572;52.094;4.870;2023-04-03T09:05:18;103337.03;;;20.85;38.51
51496;BME280;37572;52.094;4.870;2023-04-03T09:07:47;103338.09;;;20.92;38.40
51496;BME280;37572;52.094;4.870;2023-04-03T09:10:15;103334.34;;;20.93;38.53
51496;BME280;37572;52.094;4.870;2023-04-03T09:12:59;103338.63;;;21.04;38.56
51496;BME280;37572;52.094;4.870;2023-04-03T09:15:26;103331.69;;;21.10;38.33
51496;BME280;37572;52.094;4.870;2023-04-03T09:18:16;103327.16;;;21.18;38.43
51496;BME280;37572;52.094;4.870;2023-04-03T09:21:07;103323.94;;;21.23;38.36
51496;BME280;37572;52.094;4.870;2023-04-03T09:23:47;103319.38;;;21.23;38.05
51496;BME280;37572;52.094;4.870;2023-04-03T09:26:19;103324.97;;;21.30;38.28
51496;BME280;37572;52.094;4.870;2023-04-03T09:28:46;103325.66;;;21.32;38.13
51496;BME280;37572;52.094;4.870;2023-04-03T09:31:20;103326.50;;;21.33;38.29
51496;BME280;37572;52.094;4.870;2023-04-03T09:33:47;103322.94;;;21.32;37.96
51496;BME280;37572;52.094;4.870;2023-04-03T09:36:42;103319.75;;;21.37;38.14
51496;BME280;37572;52.094;4.870;2023-04-03T09:39:22;103312.78;;;21.42;38.06
51496;BME280;37572;52.094;4.870;2023-04-03T09:42:16;103308.72;;;21.47;38.28
51496;BME280;37572;52.094;4.870;2023-04-03T09:44:56;103318.06;;;21.52;38.13
51496;BME280;37572;52.094;4.870;2023-04-03T09:49:51;103304.03;;;21.57;38.00
51496;BME280;37572;52.094;4.870;2023-04-03T09:52:34;103303.00;;;21.58;38.00
51496;BME280;37572;52.094;4.870;2023-04-03T09:55:27;103301.31;;;21.49;36.82
51496;BME280;37572;52.094;4.870;2023-04-03T09:58:04;103308.72;;;21.38;36.45
51496;BME280;37572;52.094;4.870;2023-04-03T10:00:39;103294.47;;;21.44;35.50
51496;BME280;37572;52.094;4.870;2023-04-03T10:03:23;103296.19;;;21.37;35.55
51496;BME280;37572;52.094;4.870;2023-04-03T10:05:49;103291.25;;;21.33;33.78
51496;BME280;37572;52.094;4.870;2023-04-03T10:10:46;103287.75;;;21.57;35.30
51496;BME280;37572;52.094;4.870;2023-04-03T10:13:13;103287.75;;;21.65;35.33
51496;BME280;37572;52.094;4.870;2023-04-03T10:15:43;103279.78;;;21.72;35.76
51496;BME280;37572;52.094;4.870;2023-04-03T10:18:41;103269.78;;;21.80;35.64
51496;BME280;37572;52.094;4.870;2023-04-03T10:26:50;103270.75;;;21.88;35.54
51496;BME280;37572;52.094;4.870;2023-04-03T10:29:30;103265.34;;;21.79;35.39
51496;BME280;37572;52.094;4.870;2023-04-03T10:38:04;103259.28;;;21.69;35.27
51496;BME280;37572;52.094;4.870;2023-04-03T10:43:47;103255.06;;;21.67;35.45
51496;BME280;37572;52.094;4.870;2023-04-03T10:54:26;103248.84;;;22.06;35.30
51496;BME280;37572;52.094;4.870;2023-04-03T10:57:01;103259.19;;;22.10;35.31
51496;BME280;37572;52.094;4.870;2023-04-03T10:59:34;103258.16;;;22.11;35.31
51496;BME280;37572;52.094;4.870;2023-04-03T11:02:26;103258.84;;;22.13;35.37
51496;BME280;37572;52.094;4.870;2023-04-03T11:04:56;103269.31;;;22.16;35.36
51496;BME280;37572;52.094;4.870;2023-04-03T11:07:26;103251.19;;;22.17;35.42
51496;BME280;37572;52.094;4.870;2023-04-03T11:10:02;103247.97;;;22.22;35.52
51496;BME280;37572;52.094;4.870;2023-04-03T11:12:36;103243.56;;;22.21;35.33
51496;BME280;37572;52.094;4.870;2023-04-03T11:15:03;103256.13;;;22.22;35.52
51496;BME280;37572;52.094;4.870;2023-04-03T11:17:39;103244.03;;;22.24;35.09
51496;BME280;37572;52.094;4.870;2023-04-03T11:20:22;103250.31;;;22.25;35.11
51496;BME280;37572;52.094;4.870;2023-04-03T11:23:00;103244.88;;;22.25;35.02
51496;BME280;37572;52.094;4.870;2023-04-03T11:25:30;103243.09;;;22.09;33.31
51496;BME280;37572;52.094;4.870;2023-04-03T11:28:05;103231.78;;;21.89;33.09
51496;BME280;37572;52.094;4.870;2023-04-03T11:33:55;103235.75;;;22.17;34.08
51496;BME280;37572;52.094;4.870;2023-04-03T11:36:33;103230.31;;;22.26;33.90
51496;BME280;37572;52.094;4.870;2023-04-03T11:39:29;103231.66;;;22.30;33.91
51496;BME280;37572;52.094;4.870;2023-04-03T11:42:24;103218.63;;;22.33;34.35
51496;BME280;37572;52.094;4.870;2023-04-03T11:44:51;103218.06;;;22.38;34.11
51496;BME280;37572;52.094;4.870;2023-04-03T11:47:45;103217.09;;;22.31;33.18
51496;BME280;37572;52.094;4.870;2023-04-03T11:50:43;103208.28;;;22.21;32.54
51496;BME280;37572;52.094;4.870;2023-04-03T12:01:42;103195.72;;;22.20;32.46
51496;BME280;37572;52.094;4.870;2023-04-03T12:04:09;103197.75;;;22.26;32.31
51496;BME280;37572;52.094;4.870;2023-04-03T12:09:02;103195.88;;;22.26;32.32
51496;BME280;37572;52.094;4.870;2023-04-03T12:11:31;103183.34;;;22.25;32.92
51496;BME280;37572;52.094;4.870;2023-04-03T12:24:23;103175.69;;;22.37;33.63
51496;BME280;37572;52.094;4.870;2023-04-03T12:35:31;103149.41;;;22.84;33.44
51496;BME280;37572;52.094;4.870;2023-04-03T12:41:13;103153.84;;;23.00;33.62
51496;BME280;37572;52.094;4.870;2023-04-03T12:44:16;103144.19;;;23.20;33.83
51496;BME280;37572;52.094;4.870;2023-04-03T12:46:47;103138.78;;;23.50;33.52
51496;BME280;37572;52.094;4.870;2023-04-03T12:51:48;103140.94;;;24.94;31.35
51496;BME280;37572;52.094;4.870;2023-04-03T12:54:22;103148.97;;;29.72;25.37
51496;BME280;37572;52.094;4.870;2023-04-03T12:56:49;103143.84;;;35.45;20.25
51496;BME280;37572;52.094;4.870;2023-04-03T12:59:23;103158.50;;;38.72;17.94
51496;BME280;37572;52.094;4.870;2023-04-03T13:02:02;103151.41;;;40.00;16.77
51496;BME280;37572;52.094;4.870;2023-04-03T13:04:29;103151.72;;;39.99;15.51
51496;BME280;37572;52.094;4.870;2023-04-03T13:06:55;103144.38;;;39.84;15.62
51496;BME280;37572;52.094;4.870;2023-04-03T13:09:22;103146.00;;;40.09;15.56
51496;BME280;37572;52.094;4.870;2023-04-03T13:11:50;103137.97;;;39.64;15.25
51496;BME280;37572;52.094;4.870;2023-04-03T13:14:22;103145.97;;;40.28;15.34
51496;BME280;37572;52.094;4.870;2023-04-03T13:17:06;103131.69;;;41.09;14.98
51496;BME280;37572;52.094;4.870;2023-04-03T13:19:35;103145.66;;;41.09;14.22
51496;BME280;37572;52.094;4.870;2023-04-03T13:22:05;103137.41;;;41.82;14.41
51496;BME280;37572;52.094;4.870;2023-04-03T13:24:33;103144.34;;;42.07;14.54
51496;BME280;37572;52.094;4.870;2023-04-03T13:27:01;103146.19;;;42.12;14.11
51496;BME280;37572;52.094;4.870;2023-04-03T13:29:30;103133.66;;;41.36;14.17
51496;BME280;37572;52.094;4.870;2023-04-03T13:31:56;103130.88;;;40.62;14.81
51496;BME280;37572;52.094;4.870;2023-04-03T13:34:25;103139.28;;;41.73;14.64
51496;BME280;37572;52.094;4.870;2023-04-03T13:41:46;103136.69;;;38.79;17.18
51496;BME280;37572;52.094;4.870;2023-04-03T13:46:51;103130.06;;;38.75;16.83
51496;BME280;37572;52.094;4.870;2023-04-03T13:49:37;103123.63;;;40.28;16.00
51496;BME280;37572;52.094;4.870;2023-04-03T13:54:51;103121.16;;;31.02;23.13
51496;BME280;37572;52.094;4.870;2023-04-03T13:57:18;103116.38;;;29.02;26.25
51496;BME280;37572;52.094;4.870;2023-04-03T13:59:43;103112.13;;;27.65;27.49
51496;BME280;37572;52.094;4.870;2023-04-03T14:02:17;103104.03;;;26.91;28.17
51496;BME280;37572;52.094;4.870;2023-04-03T14:07:08;103111.47;;;26.22;29.69
51496;BME280;37572;52.094;4.870;2023-04-03T14:09:33;103104.91;;;25.97;29.87
51496;BME280;37572;52.094;4.870;2023-04-03T14:12:06;103100.22;;;25.91;30.03
51496;BME280;37572;52.094;4.870;2023-04-03T14:14:35;103094.91;;;25.34;28.97
51496;BME280;37572;52.094;4.870;2023-04-03T14:17:03;103086.38;;;25.16;29.52
51496;BME280;37572;52.094;4.870;2023-04-03T14:19:35;103090.75;;;25.10;29.67
51496;BME280;37572;52.094;4.870;2023-04-03T14:22:10;103084.34;;;24.96;29.82
51496;BME280;37572;52.094;4.870;2023-04-03T14:24:37;103086.09;;;25.04;30.61
51496;BME280;37572;52.094;4.870;2023-04-03T14:27:15;103086.47;;;24.72;30.38
51496;BME280;37572;52.094;4.870;2023-04-03T14:29:40;103084.59;;;25.29;30.22
51496;BME280;37572;52.094;4.870;2023-04-03T14:32:06;103079.59;;;25.68;30.12